Time;durP1;ratioP1;P1;durP2;ratioP2;P2;SDS_P1;SDS_P2;PMS_P1;PMS_P2;Temp;Humidity;BMP_temperature;BMP_pressure;BME280_temperature;BME280_humidity;BME280_pressure;Samples;Min_cycle;Max_cycle;Signal;HPM_P1;HPM_P2
2022/07/23 00:01:17;;;;;;;;;36.00;33.00;;;;;21.94;72.50;101190.00;5073453;28;45456;-83
2022/07/23 00:03:43;;;;;;;;;35.75;33.25;;;;;22.00;72.27;101210.50;5073160;28;45588;-83
2022/07/23 00:06:08;;;;;;;;;37.75;33.25;;;;;21.96;72.09;101204.25;5072199;28;45341;-83
2022/07/23 00:08:34;;;;;;;;;40.25;34.50;;;;;21.99;72.65;101211.41;5074135;28;45397;-83
2022/07/23 00:11:00;;;;;;;;;42.00;36.00;;;;;21.94;72.63;101206.06;5077287;28;45411;-84
2022/07/23 00:13:26;;;;;;;;;41.75;36.75;;;;;22.01;72.61;101206.91;5075538;28;48312;-84
2022/07/23 00:15:51;;;;;;;;;39.50;34.25;;;;;21.99;72.97;101203.38;5075518;28;45330;-84
2022/07/23 00:18:17;;;;;;;;;35.00;32.75;;;;;22.00;72.55;101203.34;5076817;28;45633;-84
2022/07/23 00:20:42;;;;;;;;;34.50;32.75;;;;;21.96;72.71;101200.69;5076979;28;45359;-82
2022/07/23 00:23:07;;;;;;;;;41.75;35.50;;;;;21.93;72.21;101196.25;5075057;27;47026;-84
2022/07/23 00:25:32;;;;;;;;;38.00;33.67;;;;;22.04;72.38;101209.59;5076962;27;45411;-84
2022/07/23 00:28:00;;;;;;;;;40.50;36.25;;;;;21.98;72.42;101196.22;5076910;27;45374;-83
2022/07/23 00:30:29;;;;;;;;;37.75;33.25;;;;;22.03;72.34;101206.00;5076693;28;45376;-84
2022/07/23 00:32:57;;;;;;;;;42.00;36.75;;;;;22.13;72.81;101220.28;5076271;28;45428;-84
2022/07/23 00:35:27;;;;;;;;;41.25;36.50;;;;;22.13;72.80;101217.59;5076664;27;45369;-82
2022/07/23 00:37:53;;;;;;;;;40.50;36.00;;;;;22.04;72.45;101191.72;5072847;27;45460;-84
2022/07/23 00:40:19;;;;;;;;;39.25;35.25;;;;;22.14;72.46;101209.56;5076624;27;45349;-83
2022/07/23 00:42:45;;;;;;;;;44.00;37.25;;;;;22.10;72.36;101201.50;5076592;27;45667;-86
2022/07/23 00:45:10;;;;;;;;;39.00;34.25;;;;;22.09;72.33;101202.41;5074986;28;45621;-84
2022/07/23 00:47:36;;;;;;;;;40.50;35.25;;;;;22.15;72.15;101216.69;5076396;28;45275;-83
2022/07/23 00:50:06;;;;;;;;;48.00;40.00;;;;;22.09;72.64;101200.63;5076482;28;45341;-84
2022/07/23 00:52:33;;;;;;;;;50.50;41.50;;;;;22.03;72.40;101189.97;5076591;28;47742;-83
2022/07/23 00:54:59;;;;;;;;;48.75;40.75;;;;;22.11;72.35;101211.34;5076427;27;45889;-83
2022/07/23 00:57:25;;;;;;;;;40.00;35.00;;;;;22.08;72.58;101214.91;5074834;27;45352;-83
2022/07/23 00:59:50;;;;;;;;;40.00;36.00;;;;;22.08;72.43;101211.34;5076370;27;45404;-84
2022/07/23 01:02:15;;;;;;;;;32.25;31.00;;;;;21.88;72.33;101179.34;5075433;28;45566;-83
2022/07/23 01:04:41;;;;;;;;;42.75;36.75;;;;;22.09;72.63;101202.41;5074723;28;45476;-83
2022/07/23 01:07:07;;;;;;;;;42.50;37.00;;;;;21.93;72.93;101176.63;5075045;28;45420;-83
2022/07/23 01:09:32;;;;;;;;;49.25;40.25;;;;;22.00;72.80;101181.03;5076124;27;45447;-84
2022/07/23 01:11:58;;;;;;;;;45.75;37.50;;;;;22.07;72.27;101191.72;5075899;28;45621;-82
2022/07/23 01:14:24;;;;;;;;;49.50;38.75;;;;;22.09;72.23;101192.59;5076422;27;45632;-84
2022/07/23 01:16:49;;;;;;;;;47.50;40.50;;;;;22.18;72.15;101201.50;5075809;28;45318;-84
2022/07/23 01:19:18;;;;;;;;;42.50;36.75;;;;;22.24;72.07;101204.16;5076660;27;45395;-84
2022/07/23 01:21:49;;;;;;;;;47.75;39.75;;;;;22.23;72.14;101205.06;5074638;28;46703;-84
2022/07/23 01:24:15;;;;;;;;;47.50;39.25;;;;;22.21;72.25;101205.03;5074407;28;45934;-85
2022/07/23 01:26:44;;;;;;;;;49.00;40.00;;;;;22.13;72.31;101194.41;5076111;27;45428;-84
2022/07/23 01:29:09;;;;;;;;;46.75;39.00;;;;;;;;5074593;27;45560;-84
2022/07/23 01:31:35;;;;;;;;;42.25;36.25;;;;;22.17;71.94;101208.66;5075747;27;45853;-83
2022/07/23 01:34:01;;;;;;;;;47.00;39.50;;;;;22.05;72.21;101192.63;5075528;27;45687;-84
2022/07/23 01:36:26;;;;;;;;;39.25;35.25;;;;;22.01;71.96;101186.38;5075863;28;45371;-84
2022/07/23 01:38:52;;;;;;;;;36.75;33.00;;;;;22.09;72.08;101205.97;5075743;28;45316;-83
2022/07/23 01:41:17;;;;;;;;;38.75;34.50;;;;;22.11;72.51;101204.19;5074121;28;47576;-84
2022/07/23 01:43:43;;;;;;;;;37.00;33.50;;;;;22.05;72.44;101193.50;5075735;28;45438;-84
2022/07/23 01:46:08;;;;;;;;;37.00;33.75;;;;;22.15;72.94;101205.97;5075440;27;45499;-84
2022/07/23 01:48:34;;;;;;;;;36.00;33.75;;;;;22.13;72.21;101202.44;5075612;28;45727;-85
2022/07/23 01:50:59;;;;;;;;;37.75;33.50;;;;;22.07;72.78;101185.47;5075642;27;46548;-84
2022/07/23 01:53:25;;;;;;;;;40.67;35.33;;;;;22.04;72.02;101178.34;5074309;27;45776;-83
2022/07/23 01:55:50;;;;;;;;;36.67;33.67;;;;;22.12;72.06;101184.59;5075661;28;45484;-84
2022/07/23 01:58:15;;;;;;;;;38.00;33.50;;;;;22.08;71.72;101177.44;5074196;27;45515;-84
2022/07/23 02:00:41;;;;;;;;;41.25;35.25;;;;;22.01;72.44;101167.63;5075429;28;45563;-83
2022/07/23 02:03:06;;;;;;;;;33.00;30.25;;;;;22.02;72.44;101169.44;5074813;28;45499;-84
2022/07/23 02:05:32;;;;;;;;;33.25;31.25;;;;;21.92;72.64;101151.66;5075449;28;45419;-84
2022/07/23 02:07:58;;;;;;;;;41.00;34.25;;;;;21.93;72.02;101160.56;5073953;28;45418;-84
2022/07/23 02:10:24;;;;;;;;;36.75;31.50;;;;;21.99;72.33;101177.47;5075029;27;45429;-83
2022/07/23 02:12:50;;;;;;;;;39.00;33.50;;;;;21.96;72.33;101180.16;5075181;28;45891;-85
2022/07/23 02:15:15;;;;;;;;;30.75;29.75;;;;;22.01;71.81;101185.50;5075367;27;45334;-84
2022/07/23 02:17:41;;;;;;;;;35.75;33.25;;;;;21.94;72.68;101178.41;5074812;28;45441;-84
2022/07/23 02:20:07;;;;;;;;;33.25;29.75;;;;;21.90;72.41;101177.53;5074871;28;45505;-82
2022/07/23 02:22:33;;;;;;;;;38.50;32.75;;;;;21.85;72.48;101171.31;5073483;27;46032;-84
2022/07/23 02:24:58;;;;;;;;;32.25;31.50;;;;;22.02;72.68;101197.97;5073538;28;45332;-83
2022/07/23 02:27:24;;;;;;;;;35.00;32.00;;;;;21.94;72.87;101183.75;5073193;27;47803;-84
2022/07/23 02:29:49;;;;;;;;;31.50;30.25;;;;;22.09;72.59;101213.13;5074854;28;45466;-83
2022/07/23 02:32:15;;;;;;;;;32.75;31.50;;;;;22.02;72.41;101192.63;5074439;27;45737;-83
2022/07/23 02:34:40;;;;;;;;;34.00;32.00;;;;;21.92;72.94;101177.50;5074916;28;45345;-83
2022/07/23 02:37:08;;;;;;;;;31.75;31.00;;;;;21.95;72.26;101186.41;5075276;27;45511;-83
2022/07/23 02:39:33;;;;;;;;;31.50;30.75;;;;;21.90;72.48;101182.88;5074574;28;45455;-83
2022/07/23 02:41:59;;;;;;;;;35.00;31.50;;;;;21.92;72.14;101188.22;5073435;27;45612;-83
2022/07/23 02:44:24;;;;;;;;;35.00;28.67;;;;;21.98;72.62;101191.78;5074348;28;46216;-83
2022/07/23 02:46:49;;;;;;;;;34.25;31.75;;;;;22.00;72.02;101200.66;5073997;28;45544;-83
2022/07/23 02:49:14;;;;;;;;;32.50;30.75;;;;;22.05;72.17;101214.03;5072994;28;45970;-84
2022/07/23 02:51:40;;;;;;;;;32.33;29.00;;;;;21.96;72.09;101200.69;5074405;27;45355;-84
2022/07/23 02:54:05;;;;;;;;;34.00;31.00;;;;;21.98;71.96;101205.16;5073294;28;45437;-84
2022/07/23 02:56:30;;;;;;;;;32.50;29.75;;;;;21.96;72.09;101206.94;5074474;27;45461;-84
2022/07/23 02:58:56;;;;;;;;;36.50;32.75;;;;;21.95;72.11;101212.28;5074461;28;46036;-83
2022/07/23 03:01:21;;;;;;;;;30.25;27.75;;;;;21.91;72.39;101206.06;5089980;27;45687;-84
2022/07/23 03:03:47;;;;;;;;;30.00;28.25;;;;;21.97;71.92;101227.47;5072534;28;45410;-84
2022/07/23 03:06:13;;;;;;;;;34.50;31.75;;;;;21.97;71.99;101232.81;5074407;27;45378;-83
2022/07/23 03:08:38;;;;;;;;;32.75;31.00;;;;;21.85;72.13;101206.09;5072907;28;47258;-83
2022/07/23 03:11:04;;;;;;;;;32.25;30.75;;;;;21.90;72.25;101220.34;5072941;28;45571;-83
2022/07/23 03:13:29;;;;;;;;;31.50;29.75;;;;;21.88;72.73;101228.38;5072951;28;45617;-85
2022/07/23 03:15:54;;;;;;;;;32.50;31.25;;;;;21.89;72.29;101223.94;5074376;27;45283;-85
2022/07/23 03:18:20;;;;;;;;;34.75;32.25;;;;;21.82;72.73;101206.09;5072322;28;48064;-84
2022/07/23 03:20:45;;;;;;;;;35.50;31.00;;;;;21.92;72.29;101226.59;5072707;28;45880;-84
2022/07/23 03:23:11;;;;;;;;;36.00;33.00;;;;;21.99;72.63;101239.03;5072518;28;45522;-84
2022/07/23 03:25:36;;;;;;;;;34.75;33.00;;;;;21.95;72.34;101231.91;5073837;27;45536;-83
2022/07/23 03:28:01;;;;;;;;;30.50;29.00;;;;;21.98;72.28;101233.72;5072530;27;47202;-84
2022/07/23 03:30:27;;;;;;;;;39.50;33.75;;;;;21.92;72.31;101223.94;5074171;27;45330;-84
2022/07/23 03:32:52;;;;;;;;;36.25;33.50;;;;;21.91;72.12;101230.16;5073697;27;45349;-83
2022/07/23 03:35:17;;;;;;;;;40.50;35.25;;;;;21.84;72.54;101215.91;5072374;28;46247;-84
2022/07/23 03:37:43;;;;;;;;;35.25;31.50;;;;;21.79;72.42;101212.38;5074071;28;45535;-84
2022/07/23 03:40:08;;;;;;;;;43.33;36.33;;;;;21.80;72.83;101221.28;5073811;27;45963;-84
2022/07/23 03:42:34;;;;;;;;;36.50;33.25;;;;;21.81;72.69;101217.69;5072001;28;45548;-84
2022/07/23 03:44:59;;;;;;;;;35.00;33.25;;;;;21.80;73.13;101222.16;5072670;27;45449;-84
2022/07/23 03:47:24;;;;;;;;;43.50;34.00;;;;;21.77;73.09;101210.59;5071653;28;46883;-83
2022/07/23 03:49:50;;;;;;;;;39.67;34.67;;;;;21.85;72.78;101230.19;5072996;27;57262;-83
2022/07/23 03:52:15;;;;;;;;;40.00;34.67;;;;;21.79;73.26;101222.19;5073597;27;45511;-84
2022/07/23 03:54:41;;;;;;;;;36.25;33.25;;;;;21.79;73.38;101217.72;5073619;28;45373;-84
2022/07/23 03:57:06;;;;;;;;;40.50;33.00;;;;;21.88;73.11;101235.53;5073149;27;51152;-83
2022/07/23 03:59:31;;;;;;;;;37.00;34.25;;;;;21.89;72.99;101238.19;5073611;28;45378;-83
2022/07/23 04:01:57;;;;;;;;;35.75;32.75;;;;;21.84;72.80;101223.06;5073282;27;45363;-84
2022/07/23 04:04:22;;;;;;;;;36.75;33.75;;;;;21.93;73.22;101243.53;5073795;27;45367;-83
2022/07/23 04:06:47;;;;;;;;;34.75;32.00;;;;;21.99;72.82;101254.22;5072912;27;46751;-84
2022/07/23 04:09:13;;;;;;;;;38.00;33.67;;;;;21.95;72.77;101245.31;5073391;27;45854;-83
2022/07/23 04:11:38;;;;;;;;;39.25;33.75;;;;;21.97;73.00;101250.63;5073564;28;45515;-83
2022/07/23 04:14:04;;;;;;;;;37.50;33.75;;;;;22.04;72.90;101258.66;5072232;28;45301;-83
2022/07/23 04:16:31;;;;;;;;;37.25;33.50;;;;;21.94;73.16;101243.53;5071844;28;48333;-84
2022/07/23 04:18:56;;;;;;;;;37.75;33.50;;;;;22.06;73.08;101254.16;5072975;28;45432;-83
2022/07/23 04:21:23;;;;;;;;;35.00;32.00;;;;;21.93;72.62;101227.50;5073537;27;45394;-84
2022/07/23 04:23:48;;;;;;;;;38.75;34.25;;;;;21.98;73.33;101244.41;5071935;27;45406;-84
2022/07/23 04:26:13;;;;;;;;;33.25;30.50;;;;;22.08;72.81;101252.41;5073260;28;45348;-84
2022/07/23 04:28:39;;;;;;;;;44.00;34.25;;;;;22.10;72.59;101253.25;5073110;28;45383;-85
2022/07/23 04:31:04;;;;;;;;;33.75;31.25;;;;;22.04;72.64;101233.66;5073335;28;45411;-83
2022/07/23 04:33:29;;;;;;;;;36.75;31.75;;;;;22.13;72.84;101247.94;5071721;28;45617;-84
2022/07/23 04:35:55;;;;;;;;;35.50;30.50;;;;;22.08;72.85;101236.34;5073145;27;45487;-83
2022/07/23 04:38:20;;;;;;;;;35.75;33.25;;;;;22.28;72.75;101270.19;5073076;27;45953;-83
2022/07/23 04:40:45;;;;;;;;;33.33;31.67;;;;;22.11;72.20;101236.31;5071791;28;45252;-84
2022/07/23 04:43:11;;;;;;;;;38.25;32.50;;;;;22.18;72.67;101242.56;5073559;27;45556;-84
2022/07/23 04:45:36;;;;;;;;;41.50;35.00;;;;;22.10;71.82;101241.66;5071368;28;47923;-84
2022/07/23 04:48:02;;;;;;;;;34.67;32.00;;;;;22.08;72.01;101232.78;5072522;28;45436;-83
2022/07/23 04:50:27;;;;;;;;;36.50;33.50;;;;;22.19;72.09;101270.22;5071404;28;45519;-83
2022/07/23 04:52:52;;;;;;;;;36.25;32.25;;;;;22.09;72.24;101254.16;5072893;28;45510;-83
2022/07/23 04:55:18;;;;;;;;;32.00;31.50;;;;;22.03;71.98;101246.16;5088612;27;47290;-84
2022/07/23 04:57:43;;;;;;;;;37.50;33.25;;;;;22.07;72.22;101253.28;5076340;28;45566;-84
2022/07/23 05:00:09;;;;;;;;;35.25;32.00;;;;;22.18;72.14;101273.81;5075076;27;45465;-84
2022/07/23 05:02:34;;;;;;;;;36.00;32.50;;;;;22.13;72.23;101263.13;5074476;28;45536;-84
2022/07/23 05:04:59;;;;;;;;;34.75;32.25;;;;;22.18;72.74;101268.44;5076003;27;45729;-83
2022/07/23 05:07:25;;;;;;;;;37.50;33.75;;;;;22.14;72.43;101264.91;5076269;27;45402;-83
2022/07/23 05:09:50;;;;;;;;;34.50;32.75;;;;;22.12;72.46;101246.16;5076102;28;45281;-83
2022/07/23 05:12:15;;;;;;;;;31.50;28.50;;;;;22.13;71.53;101261.31;5074678;27;45282;-83
2022/07/23 05:14:41;;;;;;;;;28.25;24.50;;;;;22.06;72.07;101243.47;5076484;27;46380;-85
2022/07/23 05:17:07;;;;;;;;;33.25;28.50;;;;;22.18;71.42;101263.09;5075542;27;45443;-83
2022/07/23 05:19:33;;;;;;;;;27.50;26.50;;;;;22.04;70.55;101229.22;5076325;28;45715;-83
2022/07/23 05:21:59;;;;;;;;;28.75;25.75;;;;;22.14;71.07;101256.84;5076134;27;45583;-84
2022/07/23 05:24:24;;;;;;;;;28.00;25.67;;;;;22.15;70.86;101256.84;5075561;28;51024;-84
2022/07/23 05:26:50;;;;;;;;;28.25;27.00;;;;;22.19;70.90;101259.50;5075819;27;45504;-83
2022/07/23 05:29:15;;;;;;;;;29.50;27.25;;;;;22.06;70.79;101238.09;5075867;27;45509;-84
2022/07/23 05:31:40;;;;;;;;;32.00;29.00;;;;;22.00;70.12;101227.44;5075294;28;45349;-83
2022/07/23 05:34:06;;;;;;;;;26.25;24.00;;;;;22.11;70.70;101241.69;5075430;27;45648;-84
2022/07/23 05:36:32;;;;;;;;;28.00;25.75;;;;;22.12;70.24;101254.19;5074441;28;45500;-83
2022/07/23 05:38:58;;;;;;;;;27.25;26.00;;;;;22.10;69.78;101245.22;5074396;28;45387;-83
2022/07/23 05:41:23;;;;;;;;;28.75;25.00;;;;;22.07;70.08;101247.06;5075777;28;45558;-84
2022/07/23 05:43:49;;;;;;;;;29.25;25.25;;;;;22.07;70.51;101245.25;5073915;27;47192;-84
2022/07/23 05:46:14;;;;;;;;;25.75;24.75;;;;;22.23;70.21;101286.28;5075482;28;45343;-83
2022/07/23 05:48:39;;;;;;;;;27.00;26.50;;;;;22.13;69.89;101268.47;5075115;27;45749;-84
2022/07/23 05:51:06;;;;;;;;;26.67;25.33;;;;;22.25;70.62;101296.97;5075465;28;45516;-84
2022/07/23 05:53:33;;;;;;;;;30.00;28.50;;;;;22.26;70.20;101290.72;5075202;28;45370;-84
2022/07/23 05:55:58;;;;;;;;;28.75;27.00;;;;;22.20;70.30;101272.88;5074149;28;45801;-85
2022/07/23 05:58:23;;;;;;;;;27.00;23.50;;;;;22.39;69.92;101295.13;5074203;27;45470;-84
2022/07/23 06:00:49;;;;;;;;;27.50;26.50;;;;;22.42;70.25;101300.47;5075504;28;45702;-83
2022/07/23 06:03:14;;;;;;;;;21.00;21.00;;;;;22.33;69.96;101282.66;5073467;27;47082;-84
2022/07/23 06:05:40;;;;;;;;;32.50;29.00;;;;;22.23;69.49;101255.94;5075266;27;45424;-83
2022/07/23 06:08:05;;;;;;;;;33.25;30.25;;;;;22.39;69.50;101287.06;5074837;28;45677;-84
2022/07/23 06:10:30;;;;;;;;;30.75;26.75;;;;;22.46;69.80;101302.19;5075086;28;45575;-83
2022/07/23 06:12:56;;;;;;;;;35.50;31.00;;;;;22.47;69.82;101300.44;5074947;28;46229;-85
2022/07/23 06:15:21;;;;;;;;;28.50;26.25;;;;;22.51;69.70;101307.53;5073650;28;45790;-84
2022/07/23 06:17:46;;;;;;;;;29.75;28.50;;;;;22.44;69.61;101298.66;5074968;27;45406;-85
2022/07/23 06:20:12;;;;;;;;;31.75;30.00;;;;;22.54;69.45;101311.09;5075215;27;45611;-84
2022/07/23 06:22:37;;;;;;;;;30.00;27.75;;;;;22.51;69.18;101302.19;5073661;28;47126;-84
2022/07/23 06:25:03;;;;;;;;;33.25;31.25;;;;;22.44;68.85;101301.34;5074014;28;45396;-85
2022/07/23 06:27:28;;;;;;;;;31.25;30.00;;;;;22.47;69.76;101312.06;5075156;28;45416;-85
2022/07/23 06:29:53;;;;;;;;;35.50;30.00;;;;;22.44;69.29;101316.53;5073652;27;45381;-83
2022/07/23 06:32:19;;;;;;;;;37.50;32.50;;;;;22.26;69.27;101288.03;5074698;28;45709;-83
2022/07/23 06:34:44;;;;;;;;;35.50;31.50;;;;;22.41;69.91;101325.44;5074517;28;45378;-82
2022/07/23 06:37:10;;;;;;;;;35.67;31.33;;;;;22.39;69.66;101319.22;5074634;27;45503;-84
2022/07/23 06:39:35;;;;;;;;;36.50;33.75;;;;;22.32;69.55;101315.69;5073496;28;45454;-83
2022/07/23 06:42:01;;;;;;;;;34.00;32.00;;;;;22.34;69.74;101321.03;5074376;28;46088;-84
2022/07/23 06:44:26;;;;;;;;;38.25;31.25;;;;;22.43;69.52;101329.03;5073162;27;45384;-83
2022/07/23 06:46:51;;;;;;;;;37.25;32.00;;;;;22.45;69.76;101320.97;5073885;27;45597;-84
2022/07/23 06:49:17;;;;;;;;;35.25;32.00;;;;;22.62;69.86;101332.50;5073281;28;45396;-83
2022/07/23 06:51:42;;;;;;;;;32.50;30.50;;;;;22.58;69.30;101311.97;5074378;28;46187;-83
2022/07/23 06:54:07;;;;;;;;;38.50;34.25;;;;;22.55;69.43;101296.81;5072662;28;45469;-84
2022/07/23 06:56:33;;;;;;;;;33.33;30.67;;;;;22.71;68.63;101313.69;5074509;28;45347;-83
2022/07/23 06:58:58;;;;;;;;;38.25;32.50;;;;;22.74;68.60;101324.38;5074318;27;45337;-84
2022/07/23 07:01:24;;;;;;;;;36.25;33.00;;;;;22.79;68.39;101317.19;5073700;27;45471;-82
2022/07/23 07:03:49;;;;;;;;;39.75;34.50;;;;;22.81;69.09;101322.56;5074685;28;45648;-84
2022/07/23 07:06:14;;;;;;;;;37.75;34.75;;;;;22.92;68.79;101337.72;5074397;27;45444;-84
2022/07/23 07:08:40;;;;;;;;;36.25;33.25;;;;;22.86;68.63;101328.78;5072943;28;45390;-83
2022/07/23 07:11:05;;;;;;;;;37.50;33.25;;;;;22.83;68.46;101323.44;5073946;27;46316;-84
2022/07/23 07:13:31;;;;;;;;;39.00;33.75;;;;;22.82;68.51;101337.75;5074012;27;45260;-83
2022/07/23 07:15:56;;;;;;;;;38.00;33.25;;;;;22.79;69.13;101335.97;5072815;27;46016;-84
2022/07/23 07:18:21;;;;;;;;;41.00;34.50;;;;;22.74;68.87;101328.84;5071365;28;45366;-83
2022/07/23 07:20:47;;;;;;;;;39.00;33.25;;;;;22.88;68.69;101354.72;5073749;28;46543;-85
2022/07/23 07:23:12;;;;;;;;;36.00;31.50;;;;;23.02;68.88;101369.81;5073945;27;45387;-85
2022/07/23 07:25:38;;;;;;;;;35.75;33.00;;;;;23.00;68.32;101356.41;5072419;28;45286;-85
2022/07/23 07:28:03;;;;;;;;;36.75;33.25;;;;;23.03;68.50;101364.44;5074038;28;45387;-83
2022/07/23 07:30:29;;;;;;;;;38.75;34.50;;;;;23.04;67.80;101371.56;5073579;27;46150;-82
2022/07/23 07:32:54;;;;;;;;;36.00;32.25;;;;;22.92;67.43;101352.91;5072294;28;45692;-84
2022/07/23 07:35:19;;;;;;;;;34.25;30.25;;;;;22.85;67.61;101348.44;5073749;28;45471;-83
2022/07/23 07:37:44;;;;;;;;;38.25;34.00;;;;;22.99;67.56;101372.50;5072334;28;45536;-84
2022/07/23 07:40:10;;;;;;;;;36.00;32.00;;;;;22.96;67.49;101368.06;5073653;27;46158;-84
2022/07/23 07:42:44;;;;;;;;;38.00;33.50;;;;;22.96;67.87;101367.19;5072157;28;45533;-83
2022/07/23 07:45:10;;;;;;;;;34.25;31.00;;;;;22.92;67.56;101372.56;5072083;28;45282;-83
2022/07/23 07:47:35;;;;;;;;;37.50;32.50;;;;;22.95;67.83;101386.81;5073451;28;45367;-84
2022/07/23 07:50:01;;;;;;;;;36.67;33.00;;;;;22.81;67.93;101368.13;5073155;27;53885;-83
2022/07/23 07:52:26;;;;;;;;;36.50;33.00;;;;;22.78;68.00;101369.03;5072291;27;45393;-85
2022/07/23 07:54:51;;;;;;;;;34.75;32.25;;;;;22.84;67.72;101368.09;5072288;28;45484;-83
2022/07/23 07:57:17;;;;;;;;;34.75;32.75;;;;;22.87;67.46;101365.41;5073421;28;45379;-85
2022/07/23 07:59:42;;;;;;;;;36.75;29.75;;;;;22.93;67.53;101373.44;5073490;27;50887;-83
2022/07/23 08:02:07;;;;;;;;;35.75;30.00;;;;;22.88;67.76;101359.16;5071724;28;45742;-84
2022/07/23 08:04:33;;;;;;;;;31.50;29.75;;;;;22.92;67.97;101355.59;5072232;28;45382;-85
2022/07/23 08:06:58;;;;;;;;;35.33;33.00;;;;;23.18;67.25;101379.53;5073678;28;45765;-84
2022/07/23 08:09:23;;;;;;;;;37.75;33.50;;;;;23.22;67.11;101372.34;5073268;27;46110;-83
2022/07/23 08:11:51;;;;;;;;;39.50;35.00;;;;;23.37;67.06;101396.38;5072032;28;45765;-84
2022/07/23 08:14:16;;;;;;;;;37.00;33.50;;;;;23.31;66.57;101381.22;5072052;28;45418;-83
2022/07/23 08:16:42;;;;;;;;;40.75;31.75;;;;;23.24;66.70;101378.59;5072900;27;45492;-84
2022/07/23 08:19:07;;;;;;;;;36.00;32.33;;;;;23.26;66.90;101400.94;5073279;27;46775;-84
2022/07/23 08:21:32;;;;;;;;;36.50;32.50;;;;;23.17;66.78;101386.69;5073164;27;45535;-85
2022/07/23 08:23:58;;;;;;;;;36.25;32.50;;;;;23.20;66.58;101387.56;5073399;27;45400;-84
2022/07/23 08:26:23;;;;;;;;;33.75;31.25;;;;;23.32;66.53;101403.56;5073581;28;45588;-84
2022/07/23 08:28:48;;;;;;;;;39.50;33.50;;;;;23.24;66.58;101384.84;5073223;27;46110;-84
2022/07/23 08:31:16;;;;;;;;;33.75;29.75;;;;;23.33;66.24;101398.19;5076228;27;45374;-84
2022/07/23 08:33:41;;;;;;;;;35.00;31.50;;;;;23.44;66.25;101416.88;5075206;28;45540;-84
2022/07/23 08:36:07;;;;;;;;;39.75;32.50;;;;;23.33;66.32;101395.50;5076678;28;45443;-84
2022/07/23 08:38:33;;;;;;;;;31.25;29.00;;;;;23.47;66.34;101427.59;5076465;27;45419;-85
2022/07/23 08:40:59;;;;;;;;;36.00;31.25;;;;;23.49;66.41;101425.78;5075118;28;45944;-85
2022/07/23 08:43:28;;;;;;;;;32.00;29.50;;;;;23.49;66.09;101431.16;5076419;28;45622;-86
2022/07/23 08:45:58;;;;;;;;;36.50;32.25;;;;;23.43;65.96;101423.16;5076413;27;45571;-85
2022/07/23 08:48:26;;;;;;;;;37.25;32.75;;;;;23.51;66.14;101424.00;5075897;27;45475;-85
2022/07/23 08:50:54;;;;;;;;;34.25;30.25;;;;;23.55;65.35;101427.56;5075200;28;46033;-84
2022/07/23 08:53:20;;;;;;;;;33.25;31.00;;;;;23.58;65.73;101433.75;5074999;27;45455;-85
2022/07/23 08:55:47;;;;;;;;;32.75;30.75;;;;;23.62;66.04;101438.22;5074938;28;45402;-85
2022/07/23 08:58:14;;;;;;;;;33.25;29.75;;;;;23.63;65.66;101431.03;5075979;27;45565;-84
2022/07/23 09:00:43;;;;;;;;;34.50;31.75;;;;;23.70;65.61;101426.56;5074689;28;45543;-84
2022/07/23 09:03:15;;;;;;;;;31.75;29.50;;;;;23.78;64.96;101447.06;5076272;27;45273;-85
2022/07/23 09:05:41;;;;;;;;;34.50;30.50;;;;;23.78;64.99;101427.38;5074698;28;45410;-84
2022/07/23 09:08:11;;;;;;;;;36.50;32.50;;;;;23.96;64.82;101437.94;5076158;27;46897;-83
2022/07/23 09:10:47;;;;;;;;;37.00;31.50;;;;;23.93;64.42;101413.81;5076030;28;45919;-84
2022/07/23 09:13:46;;;;;;;;;30.50;29.50;;;;;24.11;64.57;101437.81;5075045;28;45371;-83
2022/07/23 09:16:29;;;;;;;;;35.50;30.00;;;;;24.05;64.02;101426.25;5064446;27;45438;-83
2022/07/23 09:18:59;;;;;;;;;35.00;31.00;;;;;24.11;63.81;101432.44;5074121;27;47041;-85
2022/07/23 09:21:35;;;;;;;;;34.50;31.50;;;;;24.15;64.29;101422.56;5074535;27;45914;-85
2022/07/23 09:24:04;;;;;;;;;30.50;29.75;;;;;23.91;63.76;101370.88;5076064;27;45453;-84
2022/07/23 09:26:37;;;;;;;;;37.25;32.25;;;;;24.27;63.95;101421.50;5076122;27;45566;-83
2022/07/23 09:29:07;;;;;;;;;38.50;31.25;;;;;24.34;63.59;101434.00;5075615;27;45598;-85
2022/07/23 09:31:42;;;;;;;;;32.75;30.25;;;;;24.38;63.37;101443.81;5074555;28;45849;-84
2022/07/23 09:34:38;;;;;;;;;31.25;30.00;;;;;24.41;63.53;101435.72;5074128;28;45565;-85
2022/07/23 09:37:15;;;;;;;;;26.25;24.50;;;;;24.31;63.81;101410.72;5074563;27;45426;-83
2022/07/23 09:39:42;;;;;;;;;34.00;30.25;;;;;24.49;63.25;101435.66;5074105;28;47349;-84
2022/07/23 09:42:17;;;;;;;;;33.00;30.00;;;;;24.55;62.88;101430.19;5074789;27;45381;-84
2022/07/23 09:44:54;;;;;;;;;32.00;30.50;;;;;24.61;62.87;101436.38;5074494;28;45694;-84
2022/07/23 09:47:22;;;;;;;;;35.00;29.75;;;;;24.51;63.21;101410.50;5075687;27;45418;-84
2022/07/23 09:50:12;;;;;;;;;32.25;30.75;;;;;24.69;62.52;101426.41;5075190;27;46656;-84
2022/07/23 09:52:49;;;;;;;;;29.75;29.25;;;;;24.53;62.25;101397.97;5074106;28;46294;-84
2022/07/23 09:55:16;;;;;;;;;34.75;31.25;;;;;24.74;62.24;101426.38;5075707;27;45248;-83
2022/07/23 09:57:45;;;;;;;;;37.50;32.25;;;;;24.66;62.08;101407.63;5073975;27;45593;-83
2022/07/23 10:00:11;;;;;;;;;34.50;31.75;;;;;24.70;62.39;101414.75;5073910;28;48024;-83
2022/07/23 10:02:37;;;;;;;;;29.50;28.50;;;;;24.59;62.53;101399.69;5074028;27;45559;-83
2022/07/23 10:05:04;;;;;;;;;30.75;28.25;;;;;24.75;62.42;101429.94;5074957;27;45499;-84
2022/07/23 10:07:33;;;;;;;;;35.00;30.25;;;;;24.78;62.48;101432.56;5075531;27;45639;-84
2022/07/23 10:09:59;;;;;;;;;33.50;31.25;;;;;24.78;61.76;101424.50;5073842;28;47102;-83
2022/07/23 10:14:51;;;;;;;;;33.25;30.75;;;;;24.83;61.96;101419.97;5075190;27;45307;-84
2022/07/23 10:17:17;;;;;;;;;29.00;27.00;;;;;24.79;61.16;101416.44;5056849;28;45553;-83
2022/07/23 10:19:43;;;;;;;;;29.50;29.00;;;;;24.78;61.79;101411.06;5073242;28;48277;-84
2022/07/23 10:22:20;;;;;;;;;31.00;28.00;;;;;24.85;61.67;101416.34;5073256;28;45426;-84
2022/07/23 10:25:03;;;;;;;;;36.00;31.25;;;;;24.92;61.48;101436.84;5075505;27;45510;-85
2022/07/23 10:27:47;;;;;;;;;27.50;26.75;;;;;24.89;61.85;101430.66;5074882;28;45524;-84
2022/07/23 10:30:31;;;;;;;;;28.00;27.00;;;;;24.86;61.52;101426.19;5074793;28;46504;-84
2022/07/23 10:33:26;;;;;;;;;31.00;29.25;;;;;24.82;61.01;101411.00;5074930;27;45377;-84
2022/07/23 10:36:21;;;;;;;;;32.75;30.75;;;;;24.95;61.64;101427.88;5074881;28;45243;-84
2022/07/23 10:39:14;;;;;;;;;33.50;30.75;;;;;24.97;61.12;101401.81;5074905;28;45413;-84
2022/07/23 10:41:40;;;;;;;;;30.25;29.50;;;;;25.25;60.45;101417.59;5074428;28;45590;-84
2022/07/23 10:44:17;;;;;;;;;28.25;27.00;;;;;25.29;60.32;101422.91;5073172;28;46118;-86
2022/07/23 10:49:34;;;;;;;;;26.00;25.75;;;;;25.57;59.89;101426.06;5074397;27;45403;-85
2022/07/23 10:52:14;;;;;;;;;29.00;26.00;;;;;25.69;59.55;101436.63;5073408;28;47086;-84
2022/07/23 10:54:49;;;;;;;;;29.75;28.25;;;;;25.77;58.94;101432.97;5074535;27;45365;-83
2022/07/23 10:57:16;;;;;;;;;28.75;28.25;;;;;25.73;59.08;101427.56;5074855;27;45388;-84
2022/07/23 11:00:09;;;;;;;;;33.25;30.00;;;;;25.79;58.82;101447.28;5074611;27;45377;-84
2022/07/23 11:02:36;;;;;;;;;28.75;28.50;;;;;25.77;58.79;101430.25;5074103;27;45408;-84
2022/07/23 11:05:13;;;;;;;;;29.25;26.00;;;;;25.80;58.73;101432.88;5072511;27;46014;-84
2022/07/23 11:08:03;;;;;;;;;24.00;23.75;;;;;25.97;59.04;101452.34;5074461;27;45327;-84
2022/07/23 11:10:39;;;;;;;;;25.75;25.25;;;;;26.10;57.93;101456.56;5074460;28;45575;-84
2022/07/23 11:13:23;;;;;;;;;29.50;26.25;;;;;26.22;57.38;101467.13;5074078;28;45446;-85
2022/07/23 11:16:00;;;;;;;;;29.25;28.25;;;;;26.31;57.57;101466.09;5074158;28;46092;-84